Time;durP1;ratioP1;P1;durP2;ratioP2;P2;SDS_P1;SDS_P2;PMS_P1;PMS_P2;Temp;Humidity;BMP_temperature;BMP_pressure;BME280_temperature;BME280_humidity;BME280_pressure;Samples;Min_cycle;Max_cycle;Signal;HPM_P1;HPM_P2
2020/12/27 00:02:09;142974.00;0.48;247.70;0.00;0.00;0.62;;;;;24.50;39.10;;;;;;2248619;61;7376;-71
2020/12/27 00:04:36;475875.00;1.59;820.30;112481.00;0.37;195.11;;;;;24.50;39.20;;;;;;2255295;61;7627;-71
2020/12/27 00:07:13;204954.00;0.68;354.45;0.00;0.00;0.62;;;;;24.50;39.30;;;;;;2247556;61;7659;-70
2020/12/27 00:09:42;35534.00;0.12;62.16;0.00;0.00;0.62;;;;;24.40;39.20;;;;;;2248226;61;7580;-70
2020/12/27 00:12:10;589118.00;1.96;1015.43;88095.00;0.29;153.02;;;;;24.40;39.40;;;;;;2248385;61;7437;-70
2020/12/27 00:14:37;482732.00;1.61;832.10;203761.00;0.68;352.40;;;;;24.30;39.30;;;;;;2249969;61;7913;-70
2020/12/27 00:17:12;667339.00;2.22;1150.65;0.00;0.00;0.62;;;;;24.40;39.40;;;;;;2252955;61;7416;-70
2020/12/27 00:19:39;253535.00;0.85;438.03;0.00;0.00;0.62;;;;;24.30;39.40;;;;;;2256493;61;7177;-71
2020/12/27 00:22:06;56781.00;0.19;98.91;0.00;0.00;0.62;;;;;24.30;39.50;;;;;;2251688;61;7412;-70
2020/12/27 00:24:33;0.00;0.00;0.62;0.00;0.00;0.62;;;;;24.30;40.10;;;;;;2252560;61;7294;-70
2020/12/27 00:27:00;205669.00;0.69;355.68;12870.00;0.04;22.92;;;;;24.10;39.60;;;;;;2253013;61;7319;-70
2020/12/27 00:29:34;599524.00;2.00;1033.40;60236.00;0.20;104.88;;;;;24.00;39.80;;;;;;2253295;61;7363;-70
2020/12/27 00:32:04;377401.00;1.26;650.96;0.00;0.00;0.62;;;;;24.00;40.10;;;;;;2249170;61;5968;-70
2020/12/27 00:34:38;147017.00;0.49;254.67;0.00;0.00;0.62;;;;;23.90;40.20;;;;;;2251822;61;6920;-70
2020/12/27 00:37:05;346755.00;1.16;598.28;0.00;0.00;0.62;;;;;23.80;40.30;;;;;;2249355;61;7457;-70
2020/12/27 00:39:31;123039.00;0.41;213.32;0.00;0.00;0.62;;;;;23.70;40.30;;;;;;2250851;61;7246;-70
2020/12/27 00:41:59;318657.00;1.06;549.99;0.00;0.00;0.62;;;;;23.70;40.40;;;;;;2248260;61;7355;-70
2020/12/27 00:44:26;409828.00;1.37;706.70;0.00;0.00;0.62;;;;;23.70;40.40;;;;;;2251926;61;7358;-70
2020/12/27 00:46:53;207390.00;0.69;358.64;0.00;0.00;0.62;;;;;23.70;40.50;;;;;;2250785;61;7201;-71
2020/12/27 00:49:21;385066.00;1.28;664.13;140963.00;0.47;244.23;;;;;23.70;40.40;;;;;;2252224;61;7112;-71
2020/12/27 00:51:47;314544.00;1.05;542.92;0.00;0.00;0.62;;;;;23.70;40.30;;;;;;2254887;61;7201;-71
2020/12/27 00:54:21;223163.00;0.74;385.79;0.00;0.00;0.62;;;;;23.70;40.40;;;;;;2253303;61;7296;-71
2020/12/27 00:56:51;299740.00;1.00;517.47;0.00;0.00;0.62;;;;;23.70;40.30;;;;;;2251554;61;7540;-71
2020/12/27 00:59:18;338995.00;1.13;584.95;0.00;0.00;0.62;;;;;23.70;40.20;;;;;;2252642;61;7439;-70
2020/12/27 01:01:45;436190.00;1.45;752.03;149032.00;0.50;258.14;;;;;23.70;40.20;;;;;;2255304;61;7652;-71
2020/12/27 01:04:11;258827.00;0.86;447.13;17841.00;0.06;31.53;;;;;23.70;40.30;;;;;;2253897;61;7360;-71
2020/12/27 01:06:38;334843.00;1.12;577.81;29055.00;0.10;50.95;;;;;23.70;40.20;;;;;;2252061;61;7186;-71
2020/12/27 01:09:05;94148.00;0.31;163.47;0.00;0.00;0.62;;;;;23.70;40.30;;;;;;2247762;61;7193;-71
2020/12/27 01:11:35;113468.00;0.38;196.81;0.00;0.00;0.62;;;;;23.70;40.20;;;;;;2253314;61;7396;-71
2020/12/27 01:14:01;153824.00;0.51;266.40;0.00;0.00;0.62;;;;;23.70;40.10;;;;;;2248773;61;7306;-71
2020/12/27 01:16:28;156640.00;0.52;271.25;0.00;0.00;0.62;;;;;23.70;40.10;;;;;;2252609;61;7324;-71
2020/12/27 01:18:54;214832.00;0.72;371.45;0.00;0.00;0.62;;;;;23.70;40.10;;;;;;2246138;61;7161;-71
2020/12/27 01:21:30;263962.00;0.88;455.96;0.00;0.00;0.62;;;;;23.70;40.20;;;;;;2252533;61;7961;-71
2020/12/27 01:23:57;213944.00;0.71;369.92;0.00;0.00;0.62;;;;;23.70;40.10;;;;;;2252690;61;7406;-70
2020/12/27 01:26:34;300469.00;1.00;518.73;0.00;0.00;0.62;;;;;23.70;40.10;;;;;;2252308;61;7387;-71
2020/12/27 01:29:02;142338.00;0.47;246.60;0.00;0.00;0.62;;;;;23.70;40.20;;;;;;2255179;61;7466;-70
2020/12/27 01:31:28;624657.00;2.08;1076.81;167616.00;0.56;290.16;;;;;23.60;40.10;;;;;;2251076;61;7057;-71
2020/12/27 01:33:55;225550.00;0.75;389.89;0.00;0.00;0.62;;;;;23.70;40.00;;;;;;2252262;61;7693;-71
2020/12/27 01:36:32;50272.00;0.17;87.66;0.00;0.00;0.62;;;;;23.80;40.10;;;;;;2249892;61;7244;-71
2020/12/27 01:39:00;129782.00;0.43;224.95;0.00;0.00;0.62;;;;;23.70;40.00;;;;;;2249159;61;6853;-71
2020/12/27 01:41:27;272596.00;0.91;470.81;0.00;0.00;0.62;;;;;23.70;40.10;;;;;;2250804;61;7045;-71
2020/12/27 01:43:58;132203.00;0.44;229.13;0.00;0.00;0.62;;;;;23.60;40.10;;;;;;2248679;61;7257;-71
2020/12/27 01:46:29;114520.00;0.38;198.63;0.00;0.00;0.62;;;;;23.70;40.10;;;;;;2252665;61;7584;-70
2020/12/27 01:48:56;326668.00;1.09;563.76;0.00;0.00;0.62;;;;;23.70;40.10;;;;;;2249023;61;7034;-70
2020/12/27 01:51:26;52015.00;0.17;90.67;0.00;0.00;0.62;;;;;23.70;40.20;;;;;;2251871;61;7588;-71
2020/12/27 01:53:57;133333.00;0.44;231.08;0.00;0.00;0.62;;;;;23.60;40.10;;;;;;2252473;61;7513;-70
2020/12/27 01:56:37;322929.00;1.08;557.33;0.00;0.00;0.62;;;;;23.60;40.10;;;;;;2252606;61;7084;-71
2020/12/27 01:59:10;78297.00;0.26;136.10;0.00;0.00;0.62;;;;;23.70;40.20;;;;;;2254439;61;7218;-71
2020/12/27 02:04:11;1635260.00;5.45;2900.32;26919.00;0.09;47.25;;;;;23.60;40.20;;;;;;2264963;61;1399;-68
2020/12/27 02:06:42;570381.00;1.90;983.10;17925.00;0.06;31.68;;;;;23.60;40.20;;;;;;2255152;61;1848;-68
2020/12/27 02:09:08;462796.00;1.54;797.79;0.00;0.00;0.62;;;;;23.60;40.20;;;;;;2263389;61;2042;-68
2020/12/27 02:11:35;559415.00;1.86;964.19;15101.00;0.05;26.79;;;;;23.60;40.20;;;;;;2256212;61;1997;-68
2020/12/27 02:14:01;713159.00;2.38;1230.07;4058.00;0.01;7.65;;;;;23.50;40.30;;;;;;2259442;61;1845;-68
2020/12/27 02:16:29;512169.00;1.71;882.78;0.00;0.00;0.62;;;;;23.60;40.20;;;;;;2259800;61;2038;-68
2020/12/27 02:18:57;731133.00;2.44;1261.27;0.00;0.00;0.62;;;;;23.60;40.20;;;;;;2259630;61;2072;-68
2020/12/27 02:21:24;96695.00;0.32;167.87;0.00;0.00;0.62;;;;;23.50;40.10;;;;;;2263328;61;1704;-68
2020/12/27 02:23:58;301308.00;1.00;520.17;0.00;0.00;0.62;;;;;23.60;40.10;;;;;;2259874;61;1565;-68
2020/12/27 02:26:28;467533.00;1.56;805.94;0.00;0.00;0.62;;;;;23.60;40.10;;;;;;2263961;61;1032;-67
2020/12/27 02:28:56;325459.00;1.08;561.68;0.00;0.00;0.62;;;;;23.60;40.00;;;;;;2259931;61;1949;-68
2020/12/27 02:31:24;391333.00;1.30;674.91;0.00;0.00;0.62;;;;;23.50;40.00;;;;;;2259589;61;1529;-69
2020/12/27 02:33:50;232673.00;0.78;402.15;0.00;0.00;0.62;;;;;23.50;40.00;;;;;;2259433;61;1858;-68
2020/12/27 02:36:17;240712.00;0.80;415.98;0.00;0.00;0.62;;;;;23.50;40.20;;;;;;2256337;61;1827;-68
2020/12/27 02:38:43;217674.00;0.73;376.34;0.00;0.00;0.62;;;;;23.40;40.20;;;;;;2263247;61;1704;-68
2020/12/27 02:41:18;516956.00;1.72;891.02;0.00;0.00;0.62;;;;;23.40;40.30;;;;;;2259440;61;1799;-68
2020/12/27 02:43:45;322425.00;1.07;556.47;0.00;0.00;0.62;;;;;23.50;40.10;;;;;;2259658;61;1606;-68
2020/12/27 02:46:21;325969.00;1.09;562.56;0.00;0.00;0.62;;;;;23.40;40.20;;;;;;2260444;61;1252;-67
2020/12/27 02:48:48;401575.00;1.34;692.51;0.00;0.00;0.62;;;;;23.40;40.10;;;;;;2263270;61;1298;-68
2020/12/27 02:51:15;447040.00;1.49;770.69;0.00;0.00;0.62;;;;;23.40;40.10;;;;;;2257327;61;18134;-68
2020/12/27 02:53:42;434862.00;1.45;749.75;11232.00;0.04;20.08;;;;;23.40;40.10;;;;;;2257170;61;13289;-68
2020/12/27 02:56:08;298058.00;0.99;514.58;0.00;0.00;0.62;;;;;23.40;40.10;;;;;;2259681;61;7012;-68
2020/12/27 02:58:34;365334.00;1.22;630.22;0.00;0.00;0.62;;;;;23.40;40.10;;;;;;2258289;61;13557;-68
2020/12/27 03:01:05;458484.00;1.53;790.38;0.00;0.00;0.62;;;;;23.40;40.20;;;;;;2257592;61;13904;-68
2020/12/27 03:03:31;466347.00;1.55;803.90;0.00;0.00;0.62;;;;;23.30;40.20;;;;;;2252112;61;3372;-68
2020/12/27 03:05:57;290524.00;0.97;501.63;0.00;0.00;0.62;;;;;23.30;40.30;;;;;;2241557;61;8637;-68
2020/12/27 03:08:23;299506.00;1.00;517.07;0.00;0.00;0.62;;;;;23.20;40.40;;;;;;2252930;61;7826;-68
2020/12/27 03:10:50;416343.00;1.39;717.90;0.00;0.00;0.62;;;;;23.20;40.60;;;;;;2253462;61;5442;-68
2020/12/27 03:13:16;260271.00;0.87;449.61;0.00;0.00;0.62;;;;;23.10;40.70;;;;;;2249088;61;7302;-68
2020/12/27 03:15:43;132789.00;0.44;230.14;0.00;0.00;0.62;;;;;23.10;40.90;;;;;;2255983;61;7213;-67
2020/12/27 03:18:09;432606.00;1.44;745.87;0.00;0.00;0.62;;;;;23.00;40.80;;;;;;2257210;61;7105;-68
2020/12/27 03:20:35;465445.00;1.55;802.35;0.00;0.00;0.62;;;;;23.00;40.90;;;;;;2253713;61;7529;-68
2020/12/27 03:23:05;380596.00;1.27;656.45;0.00;0.00;0.62;;;;;23.00;40.90;;;;;;2257411;61;7033;-68
2020/12/27 03:25:31;578959.00;1.93;997.90;0.00;0.00;0.62;;;;;23.00;41.00;;;;;;2257019;61;7029;-68
2020/12/27 03:27:58;372272.00;1.24;642.14;0.00;0.00;0.62;;;;;23.00;40.90;;;;;;2256921;61;7070;-68
2020/12/27 03:30:24;338317.00;1.13;583.78;13541.00;0.05;24.08;;;;;23.00;40.90;;;;;;2249267;61;7280;-67
2020/12/27 03:32:51;431791.00;1.44;744.47;0.00;0.00;0.62;;;;;23.00;40.80;;;;;;2257088;61;7284;-68
2020/12/27 03:35:17;707291.00;2.36;1219.88;0.00;0.00;0.62;;;;;23.00;40.80;;;;;;2253564;61;7320;-68
2020/12/27 03:37:43;459381.00;1.53;791.92;0.00;0.00;0.62;;;;;23.00;40.80;;;;;;2253250;61;6100;-67
2020/12/27 03:40:18;620129.00;2.07;1068.99;0.00;0.00;0.62;;;;;23.00;40.70;;;;;;2253681;61;6505;-67
2020/12/27 03:42:45;524047.00;1.75;903.24;0.00;0.00;0.62;;;;;23.10;40.70;;;;;;2255852;61;7225;-67
2020/12/27 03:45:11;341621.00;1.14;589.46;0.00;0.00;0.62;;;;;23.10;40.70;;;;;;2256861;61;6991;-68
2020/12/27 03:47:38;348412.00;1.16;601.13;0.00;0.00;0.62;;;;;23.10;40.60;;;;;;2253123;61;7454;-68
2020/12/27 03:50:05;329733.00;1.10;569.03;0.00;0.00;0.62;;;;;23.00;40.40;;;;;;2253069;61;6822;-67
2020/12/27 03:52:31;493100.00;1.64;849.95;0.00;0.00;0.62;;;;;23.10;40.50;;;;;;2250611;61;7399;-68
2020/12/27 03:54:57;811572.00;2.71;1401.31;0.00;0.00;0.62;;;;;23.10;40.50;;;;;;2257453;61;7340;-68
2020/12/27 03:57:24;448355.00;1.49;772.95;0.00;0.00;0.62;;;;;23.10;40.60;;;;;;2252875;61;7035;-68
2020/12/27 03:59:50;579613.00;1.93;999.03;0.00;0.00;0.62;;;;;23.10;40.50;;;;;;2256737;61;7546;-67
2020/12/27 04:02:16;605622.00;2.02;1043.93;0.00;0.00;0.62;;;;;23.10;40.50;;;;;;2256540;61;7441;-68
2020/12/27 04:04:43;626333.00;2.09;1079.71;11533.00;0.04;20.60;;;;;23.10;40.40;;;;;;2256474;61;7355;-68
2020/12/27 04:07:09;439067.00;1.46;756.98;0.00;0.00;0.62;;;;;23.10;40.50;;;;;;2257232;61;7498;-68
2020/12/27 04:09:36;512379.00;1.71;883.14;0.00;0.00;0.62;;;;;23.10;40.40;;;;;;2249723;61;5816;-68
2020/12/27 04:12:06;472434.00;1.57;814.38;0.00;0.00;0.62;;;;;23.10;40.40;;;;;;2259070;61;7259;-68
2020/12/27 04:14:32;463224.00;1.54;798.53;0.00;0.00;0.62;;;;;23.10;40.40;;;;;;2255585;61;7245;-67
2020/12/27 04:16:59;362448.00;1.21;625.26;22234.00;0.07;39.14;;;;;23.10;40.50;;;;;;2257044;61;7349;-67
2020/12/27 04:19:29;606079.00;2.02;1044.72;7776.00;0.03;14.10;;;;;23.10;40.50;;;;;;2256620;61;7513;-67
2020/12/27 04:21:59;254260.00;0.85;439.28;0.00;0.00;0.62;;;;;23.10;40.50;;;;;;2258076;61;7179;-68
2020/12/27 04:24:25;344484.00;1.15;594.38;0.00;0.00;0.62;;;;;23.10;40.40;;;;;;2253937;61;7302;-68
2020/12/27 04:26:51;310237.00;1.03;535.52;0.00;0.00;0.62;;;;;23.10;40.40;;;;;;2254003;61;7231;-67
2020/12/27 04:29:21;727803.00;2.43;1255.49;0.00;0.00;0.62;;;;;23.10;40.30;;;;;;2259274;61;7178;-68
2020/12/27 04:31:53;392303.00;1.31;676.57;0.00;0.00;0.62;;;;;23.10;40.30;;;;;;2254969;61;7059;-68
2020/12/27 04:34:20;532016.00;1.77;916.97;0.00;0.00;0.62;;;;;23.00;40.40;;;;;;2254235;61;7447;-68
2020/12/27 04:36:46;389738.00;1.30;672.16;0.00;0.00;0.62;;;;;22.90;40.60;;;;;;2251708;61;6996;-68
2020/12/27 04:39:13;547059.00;1.82;942.89;0.00;0.00;0.62;;;;;22.90;40.70;;;;;;2253651;61;7127;-68
2020/12/27 04:41:39;631326.00;2.10;1088.34;0.00;0.00;0.62;;;;;22.80;40.70;;;;;;2251802;61;7545;-68
2020/12/27 04:44:07;561282.00;1.87;967.41;0.00;0.00;0.62;;;;;22.80;40.90;;;;;;2250241;61;7276;-68
2020/12/27 04:46:34;522930.00;1.74;901.31;0.00;0.00;0.62;;;;;22.80;41.00;;;;;;2256821;61;7322;-67
2020/12/27 04:49:01;625424.00;2.08;1078.14;0.00;0.00;0.62;;;;;22.80;41.00;;;;;;2253626;61;7171;-67
2020/12/27 04:51:29;473593.00;1.58;816.37;0.00;0.00;0.62;;;;;22.80;41.00;;;;;;2255423;61;7268;-67
2020/12/27 04:53:56;560480.00;1.87;966.03;0.00;0.00;0.62;;;;;22.80;40.90;;;;;;2252801;61;7311;-67
2020/12/27 04:56:26;531802.00;1.77;916.60;0.00;0.00;0.62;;;;;22.80;40.90;;;;;;2256353;61;6926;-68
2020/12/27 04:58:56;500519.00;1.67;862.72;32817.00;0.11;57.46;;;;;22.80;40.90;;;;;;2256878;61;7241;-68
2020/12/27 05:01:24;447343.00;1.49;771.21;0.00;0.00;0.62;;;;;22.80;40.90;;;;;;2257513;61;7142;-68
2020/12/27 05:03:52;415605.00;1.39;716.63;0.00;0.00;0.62;;;;;22.80;41.40;;;;;;2252253;61;6890;-67
2020/12/27 05:06:20;286395.00;0.95;494.53;0.00;0.00;0.62;;;;;22.80;40.80;;;;;;2256824;61;6882;-67
2020/12/27 05:08:47;305875.00;1.02;528.02;0.00;0.00;0.62;;;;;22.80;40.70;;;;;;2255980;61;7558;-67
2020/12/27 05:11:18;601635.00;2.01;1037.04;0.00;0.00;0.62;;;;;22.80;40.70;;;;;;2252580;61;7306;-68
2020/12/27 05:13:45;671011.00;2.24;1157.00;0.00;0.00;0.62;;;;;22.80;40.60;;;;;;2251525;61;7393;-67
2020/12/27 05:16:16;551295.00;1.84;950.19;0.00;0.00;0.62;;;;;22.80;40.60;;;;;;2257240;61;7154;-68
2020/12/27 05:18:53;506656.00;1.69;873.28;0.00;0.00;0.62;;;;;22.90;40.60;;;;;;2254891;61;7075;-68
2020/12/27 05:21:23;472671.00;1.58;814.79;0.00;0.00;0.62;;;;;22.90;40.60;;;;;;2253323;61;7202;-67
2020/12/27 05:23:54;711056.00;2.37;1226.42;0.00;0.00;0.62;;;;;22.90;40.60;;;;;;2252470;61;7359;-66
2020/12/27 05:26:28;422156.00;1.41;727.90;0.00;0.00;0.62;;;;;22.90;40.50;;;;;;2252433;61;5985;-68
2020/12/27 05:28:54;466475.00;1.55;804.12;0.00;0.00;0.62;;;;;22.90;40.40;;;;;;2255072;61;6346;-68
2020/12/27 05:31:21;509309.00;1.70;877.85;0.00;0.00;0.62;;;;;22.90;40.30;;;;;;2254806;61;7434;-68
2020/12/27 05:33:48;374685.00;1.25;646.29;0.00;0.00;0.62;;;;;22.90;40.30;;;;;;2256460;61;7205;-68
2020/12/27 05:36:21;664585.00;2.22;1145.88;74.00;0.00;0.75;;;;;22.90;40.30;;;;;;2252658;61;7324;-67
2020/12/27 05:38:48;228640.00;0.76;395.21;0.00;0.00;0.62;;;;;23.00;40.20;;;;;;2255659;61;7352;-68
2020/12/27 05:41:15;388928.00;1.30;670.77;0.00;0.00;0.62;;;;;23.00;40.30;;;;;;2256573;61;6085;-67
2020/12/27 05:43:41;451476.00;1.50;778.32;0.00;0.00;0.62;;;;;23.00;40.30;;;;;;2256747;61;7105;-68
2020/12/27 05:46:18;433511.00;1.45;747.42;0.00;0.00;0.62;;;;;23.00;40.30;;;;;;2256198;61;7120;-67
2020/12/27 05:48:46;578692.00;1.93;997.44;0.00;0.00;0.62;;;;;23.00;40.20;;;;;;2256525;61;7614;-68
2020/12/27 05:51:18;510400.00;1.70;879.73;0.00;0.00;0.62;;;;;23.00;40.20;;;;;;2253598;61;7325;-68
2020/12/27 05:53:50;522834.00;1.74;901.15;3688.00;0.01;7.01;;;;;23.00;40.20;;;;;;2256757;61;7414;-68
2020/12/27 05:56:21;447068.00;1.49;770.74;0.00;0.00;0.62;;;;;22.90;40.10;;;;;;2255568;61;7093;-68
2020/12/27 05:58:48;385938.00;1.29;665.63;0.00;0.00;0.62;;;;;23.00;40.20;;;;;;2251064;61;7269;-67
2020/12/27 06:01:23;695911.00;2.32;1200.15;0.00;0.00;0.62;;;;;23.00;40.20;;;;;;2258389;61;5939;-68
2020/12/27 06:04:01;283721.00;0.95;489.93;0.00;0.00;0.62;;;;;23.00;40.20;;;;;;2253438;61;7115;-67
2020/12/27 06:06:33;244607.00;0.82;422.68;0.00;0.00;0.62;;;;;23.00;40.10;;;;;;2250339;61;7009;-68
2020/12/27 06:09:05;218144.00;0.73;377.15;0.00;0.00;0.62;;;;;23.00;40.10;;;;;;2255365;61;7037;-68
2020/12/27 06:11:45;286789.00;0.96;495.21;0.00;0.00;0.62;;;;;23.00;40.10;;;;;;2257244;61;7225;-68
2020/12/27 06:14:14;130550296.00;435.17;90155584.00;0.00;0.00;0.62;;;;;22.90;40.00;;;;;;2255459;61;6029;-68
2020/12/27 06:16:50;187366.00;0.62;324.17;0.00;0.00;0.62;;;;;23.00;40.00;;;;;;2258123;61;5971;-68
2020/12/27 06:19:25;276708.00;0.92;477.88;0.00;0.00;0.62;;;;;23.00;39.90;;;;;;2256601;61;7142;-67
2020/12/27 06:22:04;294197.00;0.98;507.94;0.00;0.00;0.62;;;;;23.00;39.90;;;;;;2257760;61;7077;-68
2020/12/27 06:24:31;424172.00;1.41;731.36;0.00;0.00;0.62;;;;;23.00;39.90;;;;;;2256068;61;7105;-68
2020/12/27 06:26:58;257132.00;0.86;444.22;0.00;0.00;0.62;;;;;23.00;39.90;;;;;;2254493;61;7359;-68
2020/12/27 06:29:43;299216.00;1.00;516.57;0.00;0.00;0.62;;;;;22.90;40.00;;;;;;2256400;61;5925;-68
2020/12/27 06:32:16;415614.00;1.39;716.65;0.00;0.00;0.62;;;;;23.00;40.00;;;;;;2256772;61;6836;-68
2020/12/27 06:34:43;666764.00;2.22;1149.65;0.00;0.00;0.62;;;;;23.00;40.00;;;;;;2256069;61;5826;-68
2020/12/27 06:37:15;679462.00;2.26;1171.64;0.00;0.00;0.62;;;;;23.00;39.90;;;;;;2256701;61;7195;-68
2020/12/27 06:39:46;828513.00;2.76;1430.90;0.00;0.00;0.62;;;;;23.00;40.00;;;;;;2256710;61;7019;-68
2020/12/27 06:42:18;788091.00;2.63;1360.36;0.00;0.00;0.62;;;;;23.00;40.00;;;;;;2253488;61;7195;-68
2020/12/27 06:44:47;688115.00;2.29;1186.63;0.00;0.00;0.62;;;;;22.90;39.90;;;;;;2256920;61;7119;-68
2020/12/27 06:47:39;1019344.00;3.40;1766.76;13244.00;0.04;23.57;;;;;22.90;40.00;;;;;;2256650;61;6242;-68
2020/12/27 06:50:19;714118.00;2.38;1231.73;0.00;0.00;0.62;;;;;22.90;40.00;;;;;;2254453;61;7028;-68
2020/12/27 06:52:47;131449056.00;438.16;92032296.00;0.00;0.00;0.62;;;;;23.00;39.90;;;;;;2253269;61;5879;-68
2020/12/27 06:55:32;832499.00;2.77;1437.86;0.00;0.00;0.62;;;;;23.00;39.90;;;;;;2253767;61;7096;-68
2020/12/27 06:58:18;800818.00;2.67;1382.55;6541.00;0.02;11.96;;;;;23.00;39.90;;;;;;2255777;61;7155;-68
2020/12/27 07:00:45;570198.00;1.90;982.79;11106.00;0.04;19.87;;;;;23.00;39.90;;;;;;2253823;61;5748;-67
2020/12/27 07:03:20;1038352.00;3.46;1800.52;36902.00;0.12;64.53;;;;;23.00;39.90;;;;;;2255535;61;5302;-69
2020/12/27 07:05:49;435068.00;1.45;750.10;0.00;0.00;0.62;;;;;22.90;39.80;;;;;;2255683;61;6905;-70
2020/12/27 07:08:36;726754.00;2.42;1253.66;0.00;0.00;0.62;;;;;22.90;40.40;;;;;;2250744;61;5725;-67
2020/12/27 07:11:06;368046.00;1.23;634.88;0.00;0.00;0.62;;;;;23.00;39.80;;;;;;2257718;61;7010;-67
2020/12/27 07:13:40;670562.00;2.24;1156.23;0.00;0.00;0.62;;;;;23.10;39.30;;;;;;2260550;61;7410;-67
2020/12/27 07:16:10;943113.00;3.14;1631.97;8927.00;0.03;16.09;;;;;23.10;39.00;;;;;;2258353;61;7358;-67
2020/12/27 07:18:37;1178420.00;3.93;2051.25;0.00;0.00;0.62;;;;;23.10;38.80;;;;;;2252994;61;7160;-67
2020/12/27 07:21:11;629720.00;2.10;1085.57;0.00;0.00;0.62;;;;;23.10;38.70;;;;;;2257337;61;5618;-67
2020/12/27 07:23:47;1027071.00;3.42;1780.48;56092.00;0.19;97.72;;;;;23.10;38.50;;;;;;2257775;61;5385;-68
2020/12/27 07:26:13;1160588.00;3.87;2019.12;19924.00;0.07;35.14;;;;;23.20;38.60;;;;;;2259957;61;5587;-66
2020/12/27 07:28:40;1044718.00;3.48;1811.84;13686.00;0.05;24.33;;;;;23.10;38.40;;;;;;2254561;61;5368;-67
2020/12/27 07:31:07;1412280.00;4.71;2479.12;0.00;0.00;0.62;;;;;23.20;38.40;;;;;;2254248;61;7036;-67
2020/12/27 07:33:36;1595398.00;5.32;2823.95;0.00;0.00;0.62;;;;;23.20;38.30;;;;;;2257926;61;5540;-68
2020/12/27 07:36:08;1943625.00;6.48;3509.20;12780.00;0.04;22.77;;;;;23.20;38.10;;;;;;2253264;61;6963;-68
2020/12/27 07:38:40;2009244.00;6.70;3643.32;339.00;0.00;1.21;;;;;23.30;38.00;;;;;;2258505;61;7750;-68
2020/12/27 07:41:34;1774811.00;5.92;3171.73;29610.00;0.10;51.91;;;;;23.30;37.90;;;;;;2256707;61;7347;-67
2020/12/27 07:44:01;1772734.00;5.91;3167.64;0.00;0.00;0.62;;;;;23.40;38.00;;;;;;2259105;61;8205;-67
2020/12/27 07:46:27;2363761.00;7.88;4399.97;5919.00;0.02;10.88;;;;;23.40;37.90;;;;;;2245902;61;8277;-68
2020/12/27 07:48:54;2598955.00;8.66;4935.48;16168.00;0.05;28.63;;;;;23.40;37.70;;;;;;2257268;61;8373;-68
2020/12/27 07:51:25;2854670.00;9.52;5552.40;71264.00;0.24;123.94;;;;;23.50;37.70;;;;;;2257554;61;7863;-68
2020/12/27 07:53:57;2974066.00;9.91;5853.93;12252.00;0.04;21.85;;;;;23.50;37.60;;;;;;2257163;61;8229;-68
2020/12/27 07:56:27;3643894.00;12.15;7727.26;10844.00;0.04;19.41;;;;;23.60;37.50;;;;;;2257609;61;7244;-69
2020/12/27 07:59:02;3863900.00;12.88;8417.89;55445.00;0.18;96.60;;;;;23.70;37.30;;;;;;2253537;61;7348;-69
2020/12/27 08:01:33;4875372.00;16.25;12168.87;37930.00;0.13;66.31;;;;;23.70;37.70;;;;;;2256548;61;7343;-69
2020/12/27 08:04:08;3900430.00;13.00;8536.52;10909.00;0.04;19.52;;;;;23.80;37.00;;;;;;2255774;61;7631;-69
2020/12/27 08:06:39;4792010.00;15.97;11820.34;36579.00;0.12;63.97;;;;;23.90;36.80;;;;;;2256347;61;6932;-69
2020/12/27 08:09:13;4520280.00;15.07;10735.97;0.00;0.00;0.62;;;;;24.00;36.60;;;;;;2255835;61;7998;-69
2020/12/27 08:11:44;4391984.00;14.64;10250.47;25155.00;0.08;44.20;;;;;24.10;36.50;;;;;;2256444;61;7044;-69
2020/12/27 08:14:15;128580024.00;428.60;86131104.00;14268.00;0.05;25.34;;;;;24.20;36.40;;;;;;2252289;61;7062;-67
2020/12/27 08:16:43;4240101.00;14.13;9696.72;12060.00;0.04;21.52;;;;;24.30;36.20;;;;;;2252566;61;6366;-68
2020/12/27 08:19:14;126482696.00;421.61;81980792.00;39579.00;0.13;69.16;;;;;24.40;36.40;;;;;;2254298;61;7193;-68
2020/12/27 08:21:43;5101595.00;17.01;13153.87;40141.00;0.13;70.13;;;;;24.50;36.10;;;;;;2256046;61;8262;-69
2020/12/27 08:24:17;5426579.00;18.09;14673.74;8570.00;0.03;15.47;;;;;24.60;35.80;;;;;;2252995;61;7317;-69
2020/12/27 08:26:46;5616930.00;18.72;15624.34;37201.00;0.12;65.05;;;;;24.70;35.80;;;;;;2248306;61;7116;-69
2020/12/27 08:29:14;6173061.00;20.58;18675.29;67651.00;0.23;117.70;;;;;24.70;35.60;;;;;;2256528;61;8358;-69
2020/12/27 08:31:42;6106396.00;20.35;18287.14;48163.00;0.16;84.01;;;;;24.70;35.90;;;;;;2256399;61;8253;-69
2020/12/27 08:34:09;124600520.00;415.34;78371760.00;41076.00;0.14;71.75;;;;;24.80;36.30;;;;;;2251392;61;6458;-69
2020/12/27 08:36:53;6119285.00;20.40;18361.70;73939.00;0.25;128.57;;;;;24.90;35.50;;;;;;2256552;61;7937;-68
2020/12/27 08:39:24;5864736.00;19.55;16932.08;35818.00;0.12;62.65;;;;;25.00;35.40;;;;;;2258573;61;7981;-68
2020/12/27 08:42:06;126998624.00;423.33;82989064.00;81080.00;0.27;140.90;;;;;25.00;35.30;;;;;;2258139;61;7278;-69
2020/12/27 08:44:52;137527984.00;458.43;105414480.00;39459.00;0.13;68.95;;;;;25.00;35.40;;;;;;2254655;61;7388;-69
2020/12/27 08:47:53;5301091.00;17.67;14071.77;5562.00;0.02;10.26;;;;;25.00;35.80;;;;;;2257704;61;6938;-69
2020/12/27 08:50:32;5625869.00;18.75;15670.12;13870.00;0.05;24.65;;;;;25.10;37.50;;;;;;2259460;61;7518;-69
2020/12/27 08:53:00;134571744.00;448.57;98755216.00;28565.00;0.10;50.10;;;;;25.10;37.20;;;;;;2258087;61;7244;-69
2020/12/27 08:55:30;5350819.00;17.84;14308.01;0.00;0.00;0.62;;;;;25.00;36.80;;;;;;2253044;61;7763;-69
2020/12/27 08:57:58;5933731.00;19.78;17310.77;4730.00;0.02;8.82;;;;;25.00;36.70;;;;;;2257157;61;5548;-69
2020/12/27 09:00:32;5814666.00;19.38;16661.29;26793.00;0.09;47.03;;;;;25.00;36.90;;;;;;2258311;61;7111;-69
2020/12/27 09:03:03;5507477.00;18.36;15072.14;84913.00;0.28;147.52;;;;;25.10;36.90;;;;;;2257142;61;7145;-69
2020/12/27 09:05:32;126061200.00;420.20;81163160.00;68988.00;0.23;120.01;;;;;25.10;36.90;;;;;;2257399;61;7552;-69
2020/12/27 09:07:58;5500604.00;18.34;15037.97;3836.00;0.01;7.27;;;;;25.10;36.60;;;;;;2258296;61;5812;-69
2020/12/27 09:10:30;4842848.00;16.14;12031.98;8158.00;0.03;14.76;;;;;25.10;36.30;;;;;;2256906;61;7642;-69
2020/12/27 09:13:05;5551846.00;18.51;15294.14;16460.00;0.05;29.14;;;;;25.10;36.10;;;;;;2258815;61;5545;-70
2020/12/27 09:15:36;4687333.00;15.62;11393.38;58842.00;0.20;102.47;;;;;25.20;35.40;;;;;;2254923;61;7416;-69
2020/12/27 09:18:07;4121673.00;13.74;9280.23;53563.00;0.18;93.35;;;;;25.20;35.40;;;;;;2258549;61;5456;-70
2020/12/27 09:20:39;4080793.00;13.60;9139.49;14163.00;0.05;25.16;;;;;25.30;35.50;;;;;;2258235;61;6932;-69
2020/12/27 09:23:17;3945764.00;13.15;8685.36;0.00;0.00;0.62;;;;;25.30;35.50;;;;;;2253545;61;5517;-70
2020/12/27 09:25:44;3357631.00;11.19;6886.67;41198.00;0.14;71.96;;;;;25.40;35.50;;;;;;2254741;61;7175;-70
2020/12/27 09:28:21;3456581.00;11.52;7170.11;10504.00;0.04;18.82;;;;;25.40;35.40;;;;;;2258653;61;4022;-67
2020/12/27 09:31:09;3127933.00;10.43;6256.08;25556.00;0.09;44.89;;;;;25.50;35.40;;;;;;2256264;61;5964;-69
2020/12/27 09:33:47;3616161.00;12.05;7643.02;9737.00;0.03;17.49;;;;;25.50;35.30;;;;;;2256905;61;6978;-69
2020/12/27 09:36:14;2894913.00;9.65;5653.03;10448.00;0.03;18.73;;;;;25.70;35.40;;;;;;2253552;61;7194;-69
2020/12/27 09:38:45;3228191.00;10.76;6526.73;2660.00;0.01;5.23;;;;;25.70;35.30;;;;;;2256833;61;7678;-69
2020/12/27 09:41:20;3133564.00;10.45;6271.10;7966.00;0.03;14.43;;;;;25.70;35.10;;;;;;2254300;61;5924;-68
2020/12/27 09:43:58;3427945.00;11.43;7087.33;62697.00;0.21;109.14;;;;;25.80;35.10;;;;;;2252965;61;7326;-69
2020/12/27 09:46:42;3564592.00;11.88;7488.02;51888.00;0.17;90.45;;;;;25.80;35.00;;;;;;2256490;61;6183;-69
2020/12/27 09:49:23;3121099.00;10.40;6237.89;24973.00;0.08;43.88;;;;;25.90;35.00;;;;;;2257190;61;7187;-69
2020/12/27 09:52:04;2519313.00;8.40;4750.89;0.00;0.00;0.62;;;;;26.00;34.80;;;;;;2250918;61;6851;-69